createdAt,value
2018-03-27T00:02:19.837Z,4.80
2018-03-27T00:04:47.302Z,5.50
2018-03-27T00:07:14.747Z,5.07
2018-03-27T00:09:42.251Z,5.70
2018-03-27T00:12:09.710Z,4.50
2018-03-27T00:14:37.149Z,5.00
2018-03-27T00:17:04.589Z,5.23
2018-03-27T00:19:32.081Z,5.90
2018-03-27T00:21:59.544Z,5.00
2018-03-27T00:24:26.987Z,5.43
2018-03-27T00:27:01.049Z,4.87
2018-03-27T00:29:40.390Z,6.27
2018-03-27T00:32:19.793Z,4.80
2018-03-27T00:34:58.990Z,5.50
2018-03-27T00:37:38.524Z,5.20
2018-03-27T00:40:17.622Z,4.53
2018-03-27T00:42:54.012Z,7.40
2018-03-27T00:45:21.453Z,6.03
2018-03-27T00:47:48.893Z,6.53
2018-03-27T00:50:16.348Z,5.63
2018-03-27T00:52:43.789Z,6.17
2018-03-27T00:55:11.239Z,5.43
2018-03-27T00:57:38.725Z,5.83
2018-03-27T01:00:06.168Z,5.80
2018-03-27T01:02:33.605Z,5.90
2018-03-27T01:05:06.665Z,5.33
2018-03-27T01:07:34.109Z,6.50
2018-03-27T01:10:01.551Z,5.80
2018-03-27T01:12:29.013Z,5.20
2018-03-27T01:14:56.461Z,5.40
2018-03-27T01:17:23.922Z,5.40
2018-03-27T01:19:51.531Z,5.60
2018-03-27T01:22:19.016Z,5.23
2018-03-27T01:24:46.461Z,5.73
2018-03-27T01:27:14.132Z,6.07
2018-03-27T01:29:41.570Z,6.00
2018-03-27T01:32:09.046Z,5.63
2018-03-27T01:34:36.721Z,6.17
2018-03-27T01:37:04.160Z,6.37
2018-03-27T01:39:31.596Z,6.27
2018-03-27T01:41:59.265Z,6.23
2018-03-27T01:44:26.718Z,6.20
2018-03-27T01:46:54.164Z,5.30
2018-03-27T01:49:21.645Z,6.63
2018-03-27T01:51:49.089Z,6.87
2018-03-27T01:54:16.530Z,6.07
2018-03-27T01:56:44.190Z,5.83
2018-03-27T01:59:11.625Z,5.80
2018-03-27T02:01:39.066Z,5.43
2018-03-27T02:04:06.537Z,6.30
2018-03-27T02:06:33.981Z,5.47
2018-03-27T02:09:01.449Z,6.33
2018-03-27T02:11:34.958Z,6.67
2018-03-27T02:14:08.011Z,5.93
2018-03-27T02:16:41.453Z,6.37
2018-03-27T02:19:14.608Z,4.90
2018-03-27T02:21:41.519Z,6.67
2018-03-27T02:24:08.977Z,6.60
2018-03-27T02:26:36.453Z,7.10
2018-03-27T02:29:04.142Z,6.10
2018-03-27T02:31:31.582Z,6.30
2018-03-27T02:33:59.025Z,6.03
2018-03-27T02:36:26.502Z,5.83
2018-03-27T02:38:53.942Z,5.80
2018-03-27T02:41:21.390Z,7.43
2018-03-27T02:43:48.934Z,7.70
2018-03-27T02:46:16.378Z,6.40
2018-03-27T02:48:43.826Z,6.20
2018-03-27T02:51:11.285Z,7.07
2018-03-27T02:53:38.769Z,6.10
2018-03-27T02:56:06.216Z,6.23
2018-03-27T02:58:33.978Z,6.93
2018-03-27T03:01:01.439Z,5.90
2018-03-27T03:03:28.889Z,6.23
2018-03-27T03:05:56.550Z,7.13
2018-03-27T03:08:24.015Z,5.80
2018-03-27T03:10:51.457Z,7.13
2018-03-27T03:13:19.101Z,7.37
2018-03-27T03:15:46.536Z,6.10
2018-03-27T03:18:13.987Z,6.13
2018-03-27T03:20:41.625Z,6.67
2018-03-27T03:23:09.067Z,6.90
2018-03-27T03:25:36.517Z,8.73
2018-03-27T03:28:04.085Z,7.10
2018-03-27T03:30:31.527Z,8.47
2018-03-27T03:32:58.974Z,8.03
2018-03-27T03:35:26.450Z,7.40
2018-03-27T03:37:53.914Z,8.80
2018-03-27T03:40:21.378Z,9.43
2018-03-27T03:42:48.977Z,7.70
2018-03-27T03:45:16.420Z,8.70
2018-03-27T03:47:43.877Z,9.50
2018-03-27T03:50:11.478Z,11.17
2018-03-27T03:52:38.929Z,10.50
2018-03-27T03:55:06.382Z,11.17
2018-03-27T03:57:34.077Z,10.37
2018-03-27T04:00:01.514Z,8.50
2018-03-27T04:02:28.954Z,9.87
2018-03-27T04:04:56.455Z,9.80
2018-03-27T04:07:23.930Z,10.47
2018-03-27T04:09:51.397Z,9.57
2018-03-27T04:12:19.001Z,9.00
2018-03-27T04:14:46.469Z,10.40
2018-03-27T04:17:13.931Z,9.60
2018-03-27T04:19:41.397Z,9.27
2018-03-27T04:22:08.849Z,8.63
2018-03-27T04:24:36.289Z,9.33
2018-03-27T04:27:03.757Z,8.80
2018-03-27T04:29:31.197Z,8.80
2018-03-27T04:31:58.862Z,9.20
2018-03-27T04:34:26.316Z,9.60
2018-03-27T04:36:53.787Z,9.10
2018-03-27T04:39:21.257Z,10.30
2018-03-27T04:41:48.742Z,9.47
2018-03-27T04:44:16.393Z,10.30
2018-03-27T04:46:43.837Z,9.83
2018-03-27T04:49:11.294Z,8.90
2018-03-27T04:51:38.761Z,8.40
2018-03-27T04:54:06.214Z,8.00
2018-03-27T04:56:33.829Z,8.20
2018-03-27T04:59:01.274Z,8.13
2018-03-27T05:01:28.733Z,9.00
2018-03-27T05:03:56.205Z,9.57
2018-03-27T05:06:23.655Z,7.90
2018-03-27T05:08:51.293Z,8.43
2018-03-27T05:11:18.828Z,9.27
2018-03-27T05:13:46.273Z,8.60
2018-03-27T05:16:13.738Z,9.27
2018-03-27T05:18:41.191Z,9.53
2018-03-27T05:21:08.994Z,9.10
2018-03-27T05:23:36.443Z,8.70
2018-03-27T05:26:03.885Z,8.77
2018-03-27T05:28:31.354Z,11.00
2018-03-27T05:30:58.798Z,8.23
2018-03-27T05:33:26.396Z,8.23
2018-03-27T05:35:53.837Z,8.63
2018-03-27T05:38:21.277Z,7.47
2018-03-27T05:40:48.746Z,8.40
2018-03-27T05:43:16.201Z,7.23
2018-03-27T05:45:43.845Z,8.30
2018-03-27T05:48:11.289Z,8.90
2018-03-27T05:50:38.745Z,8.40
2018-03-27T05:53:06.222Z,8.57
2018-03-27T05:55:33.669Z,7.80
2018-03-27T05:58:01.302Z,7.57
2018-03-27T06:00:28.751Z,7.73
2018-03-27T06:02:56.198Z,7.80
2018-03-27T06:05:23.666Z,8.50
2018-03-27T06:07:51.118Z,7.90
2018-03-27T06:10:18.759Z,8.97
2018-03-27T06:12:46.197Z,7.57
2018-03-27T06:15:13.642Z,7.63
2018-03-27T06:17:41.113Z,7.50
2018-03-27T06:20:08.565Z,7.57
2018-03-27T06:22:36.516Z,8.53
2018-03-27T06:25:03.965Z,8.80
2018-03-27T06:27:31.431Z,7.67
2018-03-27T06:29:58.913Z,8.03
2018-03-27T06:32:26.354Z,8.23
2018-03-27T06:34:53.929Z,8.17
2018-03-27T06:37:21.364Z,7.97
2018-03-27T06:39:48.806Z,8.60
2018-03-27T06:42:16.310Z,9.80
2018-03-27T06:44:43.757Z,9.20
2018-03-27T06:47:11.562Z,10.00
2018-03-27T06:49:39.025Z,11.13
2018-03-27T06:52:06.481Z,9.97
2018-03-27T06:54:33.965Z,10.80
2018-03-27T06:57:01.434Z,9.37
2018-03-27T06:59:28.908Z,10.37
2018-03-27T07:01:56.391Z,9.23
2018-03-27T07:04:23.832Z,9.70
2018-03-27T07:06:51.349Z,9.90
2018-03-27T07:09:18.764Z,9.70
2018-03-27T07:11:46.448Z,8.93
2018-03-27T07:14:13.881Z,8.63
2018-03-27T07:16:41.330Z,8.87
2018-03-27T07:19:08.840Z,10.20
2018-03-27T07:21:36.283Z,9.67
2018-03-27T07:24:04.077Z,8.27
2018-03-27T07:26:31.517Z,8.80
2018-03-27T07:28:58.965Z,9.43
2018-03-27T07:31:26.425Z,8.37
2018-03-27T07:33:53.869Z,8.67
2018-03-27T07:36:21.349Z,7.67
2018-03-27T07:38:48.797Z,7.90
2018-03-27T07:41:16.237Z,7.40
2018-03-27T07:43:43.697Z,6.60
2018-03-27T07:46:11.154Z,7.23
2018-03-27T07:48:38.634Z,7.20
2018-03-27T07:51:06.074Z,7.37
2018-03-27T07:53:33.514Z,7.73
2018-03-27T07:56:01.057Z,7.77
2018-03-27T07:58:28.505Z,7.77
2018-03-27T08:00:56.154Z,8.50
2018-03-27T08:03:23.587Z,7.73
2018-03-27T08:05:51.562Z,8.07
2018-03-27T08:08:19.053Z,7.40
2018-03-27T08:10:46.496Z,8.97
2018-03-27T08:13:14.364Z,8.83
2018-03-27T08:15:41.834Z,8.27
2018-03-27T08:18:09.278Z,8.10
2018-03-27T08:20:36.745Z,8.30
2018-03-27T08:23:04.196Z,8.43
2018-03-27T08:25:31.825Z,8.17
2018-03-27T08:27:59.290Z,7.30
2018-03-27T08:30:26.734Z,7.23
2018-03-27T08:32:54.203Z,7.93
2018-03-27T08:35:21.669Z,7.70
2018-03-27T08:37:49.391Z,9.13
2018-03-27T08:40:16.833Z,8.43
2018-03-27T08:42:44.286Z,8.57
2018-03-27T08:45:11.773Z,7.50
2018-03-27T08:47:39.236Z,6.97
2018-03-27T08:50:06.851Z,8.50
2018-03-27T08:52:34.306Z,8.93
2018-03-27T08:55:01.785Z,8.83
2018-03-27T08:57:29.257Z,8.43
2018-03-27T08:59:56.709Z,10.43
2018-03-27T09:02:24.225Z,10.93
2018-03-27T09:04:51.671Z,9.43
2018-03-27T09:07:19.119Z,9.50
2018-03-27T09:09:46.604Z,11.00
2018-03-27T09:12:14.053Z,11.13
2018-03-27T09:14:41.561Z,11.00
2018-03-27T09:17:09.071Z,10.80
2018-03-27T09:19:36.521Z,11.93
2018-03-27T09:22:04.012Z,10.90
2018-03-27T09:24:31.465Z,13.30
2018-03-27T09:26:59.181Z,11.90
2018-03-27T09:29:26.635Z,11.73
2018-03-27T09:31:54.082Z,12.20
2018-03-27T09:34:21.557Z,12.90
2018-03-27T09:36:49.018Z,13.13
2018-03-27T09:39:16.637Z,12.10
2018-03-27T09:41:44.086Z,13.30
2018-03-27T09:44:11.577Z,13.30
2018-03-27T09:46:39.055Z,10.60
2018-03-27T09:49:06.592Z,12.73
2018-03-27T09:51:34.189Z,14.37
2018-03-27T09:54:01.677Z,12.53
2018-03-27T09:56:29.129Z,13.57
2018-03-27T09:58:56.622Z,12.57
2018-03-27T10:01:33.997Z,16.17
2018-03-27T10:04:01.652Z,15.33
2018-03-27T10:06:29.143Z,16.47
2018-03-27T10:08:56.692Z,22.27
2018-03-27T10:11:24.125Z,18.60
2018-03-27T10:13:51.577Z,18.30
2018-03-27T10:16:19.060Z,18.13
2018-03-27T10:18:46.508Z,17.27
2018-03-27T10:21:14.005Z,17.80
2018-03-27T10:23:41.493Z,18.80
2018-03-27T10:26:08.944Z,14.80
2018-03-27T10:28:36.484Z,13.53
2018-03-27T10:31:03.971Z,11.63
2018-03-27T10:33:31.462Z,11.30
2018-03-27T10:35:58.950Z,13.33
2018-03-27T10:38:26.405Z,12.13
2018-03-27T10:40:53.878Z,14.03
2018-03-27T10:43:21.357Z,15.87
2018-03-27T10:45:48.849Z,15.30
2018-03-27T10:48:16.317Z,15.40
2018-03-27T10:50:43.806Z,14.70
2018-03-27T10:53:11.294Z,15.17
2018-03-27T10:55:38.775Z,15.93
2018-03-27T10:58:06.414Z,17.30
2018-03-27T11:00:33.871Z,20.60
2018-03-27T11:03:01.341Z,18.33
2018-03-27T11:05:28.841Z,17.90
2018-03-27T11:07:56.310Z,16.97
2018-03-27T11:10:24.193Z,19.70
2018-03-27T11:12:51.661Z,19.30
2018-03-27T11:15:19.139Z,18.57
2018-03-27T11:17:46.630Z,20.17
2018-03-27T11:20:14.084Z,19.20
2018-03-27T11:22:41.725Z,19.60
2018-03-27T11:25:09.177Z,19.67
2018-03-27T11:27:36.653Z,19.07
2018-03-27T11:30:04.137Z,18.03
2018-03-27T11:32:31.595Z,23.83
2018-03-27T11:34:59.185Z,21.27
2018-03-27T11:37:26.637Z,20.33
2018-03-27T11:39:54.093Z,18.93
2018-03-27T11:42:21.572Z,19.03
2018-03-27T11:44:49.021Z,20.80
2018-03-27T11:47:16.510Z,20.07
2018-03-27T11:49:43.964Z,20.30
2018-03-27T11:52:11.425Z,20.93
2018-03-27T11:54:38.915Z,18.20
2018-03-27T11:57:06.369Z,17.63
2018-03-27T11:59:34.161Z,20.47
2018-03-27T12:02:01.640Z,18.47
2018-03-27T12:04:29.121Z,17.50
2018-03-27T12:06:56.610Z,19.00
2018-03-27T12:09:24.067Z,18.87
2018-03-27T12:11:51.733Z,19.10
2018-03-27T12:14:19.209Z,20.33
2018-03-27T12:16:46.657Z,21.40
2018-03-27T12:19:14.140Z,20.00
2018-03-27T12:21:41.598Z,20.17
2018-03-27T12:24:09.183Z,20.60
2018-03-27T12:26:36.685Z,22.20
2018-03-27T12:29:04.138Z,20.10
2018-03-27T12:31:31.609Z,19.30
2018-03-27T12:33:59.069Z,20.70
2018-03-27T12:36:26.737Z,21.23
2018-03-27T12:38:54.194Z,22.10
2018-03-27T12:41:21.645Z,20.63
2018-03-27T12:43:49.198Z,20.17
2018-03-27T12:46:20.950Z,18.70
2018-03-27T12:48:49.101Z,20.57
2018-03-27T12:51:16.590Z,19.73
2018-03-27T12:53:44.040Z,20.83
2018-03-27T12:56:11.517Z,20.73
2018-03-27T12:58:38.972Z,20.60
2018-03-27T13:01:06.553Z,20.73
2018-03-27T13:03:34.001Z,21.80
2018-03-27T13:06:01.450Z,21.10
2018-03-27T13:08:28.945Z,20.97
2018-03-27T13:10:56.397Z,21.33
2018-03-27T13:13:24.001Z,21.50
2018-03-27T13:15:51.453Z,20.20
2018-03-27T13:18:18.905Z,22.70
2018-03-27T13:20:46.377Z,21.83
2018-03-27T13:23:13.826Z,24.17
2018-03-27T13:25:41.466Z,23.73
2018-03-27T13:28:08.941Z,24.73
2018-03-27T13:30:36.391Z,28.20
2018-03-27T13:33:03.861Z,21.20
2018-03-27T13:35:31.309Z,25.03
2018-03-27T13:37:58.811Z,24.03
2018-03-27T13:40:26.261Z,21.87
2018-03-27T13:42:53.729Z,22.13
2018-03-27T13:45:21.206Z,22.30
2018-03-27T13:47:48.653Z,20.70
2018-03-27T13:50:16.149Z,22.17
2018-03-27T13:52:43.622Z,23.60
2018-03-27T13:55:11.078Z,22.13
2018-03-27T13:57:38.560Z,20.87
2018-03-27T14:00:08.682Z,21.00
2018-03-27T14:02:36.162Z,22.00
2018-03-27T14:05:03.629Z,20.17
2018-03-27T14:07:31.081Z,18.00
2018-03-27T14:09:58.554Z,20.33
2018-03-27T14:12:26.008Z,21.53
2018-03-27T14:14:53.738Z,21.57
2018-03-27T14:17:22.102Z,21.47
2018-03-27T14:19:49.566Z,23.27
2018-03-27T14:22:17.057Z,22.70
2018-03-27T14:24:44.536Z,21.50
2018-03-27T14:27:12.206Z,20.20
2018-03-27T14:29:39.657Z,22.97
2018-03-27T14:32:07.133Z,23.20
2018-03-27T14:34:34.679Z,20.93
2018-03-27T14:37:02.164Z,22.27
2018-03-27T14:39:30.078Z,21.70
2018-03-27T14:41:57.538Z,23.43
2018-03-27T14:44:24.981Z,21.83
2018-03-27T14:46:52.523Z,23.23
2018-03-27T14:49:20.014Z,21.53
2018-03-27T14:51:47.819Z,22.33
2018-03-27T14:54:15.273Z,21.07
2018-03-27T14:56:42.726Z,18.97
2018-03-27T14:59:10.202Z,17.70
2018-03-27T15:01:37.664Z,18.10
2018-03-27T15:04:05.271Z,18.03
2018-03-27T15:06:32.726Z,17.87
2018-03-27T15:09:00.180Z,18.23
2018-03-27T15:11:27.661Z,20.50
2018-03-27T15:13:55.121Z,19.93
2018-03-27T15:16:22.913Z,19.47
2018-03-27T15:18:50.373Z,19.90
2018-03-27T15:21:17.836Z,18.43
2018-03-27T15:23:45.305Z,17.17
2018-03-27T15:26:12.756Z,17.30
2018-03-27T15:28:40.335Z,16.90
2018-03-27T15:31:08.007Z,17.70
2018-03-27T15:33:35.497Z,18.20
2018-03-27T15:36:02.950Z,17.13
2018-03-27T15:38:30.400Z,18.20
2018-03-27T15:40:57.880Z,20.20
2018-03-27T15:43:25.333Z,18.00
2018-03-27T15:45:52.787Z,18.23
2018-03-27T15:48:20.270Z,18.00
2018-03-27T15:50:47.736Z,17.97
2018-03-27T15:53:15.225Z,18.80
2018-03-27T15:55:42.753Z,16.83
2018-03-27T15:58:10.181Z,17.20
2018-03-27T16:00:37.655Z,15.83
2018-03-27T16:03:05.193Z,16.20
2018-03-27T16:05:32.678Z,16.70
2018-03-27T16:08:00.137Z,16.93
2018-03-27T16:10:27.637Z,17.53
2018-03-27T16:12:55.107Z,16.70
2018-03-27T16:15:22.581Z,17.03
2018-03-27T16:17:50.285Z,17.80
2018-03-27T16:20:17.733Z,17.00
2018-03-27T16:22:45.190Z,18.33
2018-03-27T16:25:12.670Z,16.93
2018-03-27T16:27:40.134Z,18.40
2018-03-27T16:30:07.666Z,18.40
2018-03-27T16:32:35.130Z,18.37
2018-03-27T16:35:02.582Z,19.30
2018-03-27T16:37:30.063Z,19.63
2018-03-27T16:39:57.553Z,19.00
2018-03-27T16:42:25.170Z,19.53
2018-03-27T16:44:52.638Z,19.60
2018-03-27T16:47:20.114Z,20.00
2018-03-27T16:49:47.602Z,20.87
2018-03-27T16:52:15.188Z,18.90
2018-03-27T16:54:42.721Z,22.13
2018-03-27T16:57:10.169Z,20.83
2018-03-27T16:59:37.629Z,20.17
2018-03-27T17:02:05.117Z,20.70
2018-03-27T17:04:32.573Z,21.00
2018-03-27T17:07:00.137Z,22.93
2018-03-27T17:09:27.594Z,22.47
2018-03-27T17:11:55.044Z,20.63
2018-03-27T17:14:22.553Z,21.57
2018-03-27T17:16:49.998Z,21.70
2018-03-27T17:19:17.933Z,21.83
2018-03-27T17:21:45.374Z,21.03
2018-03-27T17:24:12.823Z,22.60
2018-03-27T17:26:40.297Z,24.20
2018-03-27T17:29:07.745Z,24.63
2018-03-27T17:31:35.381Z,22.90
2018-03-27T17:34:02.830Z,23.40
2018-03-27T17:36:30.295Z,22.67
2018-03-27T17:38:57.765Z,22.63
2018-03-27T17:41:25.213Z,22.73
2018-03-27T17:43:53.382Z,23.83
2018-03-27T17:46:21.189Z,20.73
2018-03-27T17:48:48.637Z,23.87
2018-03-27T17:51:16.104Z,23.30
2018-03-27T17:53:43.561Z,23.63
2018-03-27T17:56:11.142Z,23.73
2018-03-27T17:58:38.589Z,24.10
2018-03-27T18:01:06.054Z,22.60
2018-03-27T18:03:33.538Z,23.37
2018-03-27T18:06:01.006Z,23.40
2018-03-27T18:08:28.507Z,22.80
2018-03-27T18:10:55.966Z,23.83
2018-03-27T18:13:23.437Z,23.30
2018-03-27T18:15:50.916Z,23.40
2018-03-27T18:18:18.362Z,24.37
2018-03-27T18:20:46.098Z,23.10
2018-03-27T18:23:13.546Z,24.93
2018-03-27T18:25:40.996Z,26.00
2018-03-27T18:28:08.469Z,26.87
2018-03-27T18:30:36.476Z,26.13
2018-03-27T18:33:04.072Z,25.77
2018-03-27T18:35:33.374Z,28.10
2018-03-27T18:38:00.848Z,27.40
2018-03-27T18:40:28.358Z,28.30
2018-03-27T18:42:55.820Z,26.20
2018-03-27T18:45:23.660Z,30.60
2018-03-27T18:47:51.118Z,27.10
2018-03-27T18:50:18.861Z,27.73
2018-03-27T18:52:46.338Z,26.50
2018-03-27T18:55:13.785Z,28.03
2018-03-27T18:57:41.278Z,27.83
2018-03-27T19:00:08.736Z,26.00
2018-03-27T19:02:36.198Z,28.33
2018-03-27T19:05:03.683Z,26.00
2018-03-27T19:07:31.134Z,27.20
2018-03-27T19:09:58.624Z,25.63
2018-03-27T19:12:26.079Z,24.43
2018-03-27T19:14:54.575Z,26.13
2018-03-27T19:17:22.056Z,25.30
2018-03-27T19:19:49.518Z,25.33
2018-03-27T19:22:17.006Z,26.37
2018-03-27T19:24:44.454Z,24.77
2018-03-27T19:27:11.898Z,23.60
2018-03-27T19:29:39.387Z,26.60
2018-03-27T19:32:06.862Z,23.40
2018-03-27T19:34:34.489Z,25.20
2018-03-27T19:37:01.950Z,25.37
2018-03-27T19:39:29.407Z,26.80
2018-03-27T19:41:57.691Z,23.63
2018-03-27T19:44:25.995Z,21.70
2018-03-27T19:46:53.487Z,22.77
2018-03-27T19:49:25.094Z,24.37
2018-03-27T19:51:53.535Z,23.30
2018-03-27T19:54:21.004Z,22.40
2018-03-27T19:56:48.523Z,22.50
2018-03-27T19:59:15.991Z,22.43
2018-03-27T20:01:43.433Z,21.93
2018-03-27T20:04:11.023Z,22.73
2018-03-27T20:06:39.683Z,20.90
2018-03-27T20:09:07.733Z,19.17
2018-03-27T20:11:35.205Z,18.63
2018-03-27T20:14:02.826Z,17.57
2018-03-27T20:16:31.071Z,19.10
2018-03-27T20:18:58.546Z,18.23
2018-03-27T20:21:26.001Z,19.67
2018-03-27T20:23:53.486Z,16.80
2018-03-27T20:26:20.934Z,18.27
2018-03-27T20:28:48.665Z,16.63
2018-03-27T20:31:16.137Z,15.57
2018-03-27T20:33:43.610Z,17.00
2018-03-27T20:36:11.078Z,14.27
2018-03-27T20:38:38.537Z,16.20
2018-03-27T20:41:06.138Z,15.67
2018-03-27T20:43:33.586Z,15.00
2018-03-27T20:46:01.046Z,13.90
2018-03-27T20:48:28.526Z,17.60
2018-03-27T20:50:55.982Z,14.27
2018-03-27T20:53:23.486Z,14.33
2018-03-27T20:55:50.930Z,13.83
2018-03-27T20:58:18.390Z,11.90
2018-03-27T21:00:47.134Z,12.53
2018-03-27T21:03:16.021Z,11.10
2018-03-27T21:05:43.574Z,12.53
2018-03-27T21:08:11.030Z,11.97
2018-03-27T21:10:38.493Z,11.87
2018-03-27T21:13:05.961Z,12.07
2018-03-27T21:15:33.418Z,10.73
2018-03-27T21:18:01.021Z,10.90
2018-03-27T21:20:28.474Z,11.47
2018-03-27T21:22:59.211Z,11.50
2018-03-27T21:25:26.706Z,11.37
2018-03-27T21:27:54.161Z,10.17
2018-03-27T21:30:21.645Z,11.57
2018-03-27T21:32:49.130Z,12.00
2018-03-27T21:35:16.609Z,11.17
2018-03-27T21:37:48.124Z,11.57
2018-03-27T21:40:16.059Z,11.10
2018-03-27T21:42:43.822Z,10.70
2018-03-27T21:45:11.273Z,11.90
2018-03-27T21:47:38.724Z,13.37
2018-03-27T21:50:06.210Z,11.27
2018-03-27T21:52:33.658Z,11.70
2018-03-27T21:55:03.858Z,10.33
2018-03-27T21:57:31.314Z,12.53
2018-03-27T21:59:58.753Z,13.67
2018-03-27T22:02:26.221Z,11.93
2018-03-27T22:04:53.689Z,10.23
2018-03-27T22:07:21.378Z,9.60
2018-03-27T22:09:48.832Z,9.00
2018-03-27T22:12:16.291Z,9.53
2018-03-27T22:14:43.753Z,9.53
2018-03-27T22:17:11.204Z,9.20
2018-03-27T22:19:38.668Z,9.93
2018-03-27T22:22:06.137Z,9.17
2018-03-27T22:24:33.627Z,8.97
2018-03-27T22:27:01.066Z,8.67
2018-03-27T22:29:28.713Z,8.57
2018-03-27T22:31:56.145Z,8.87
2018-03-27T22:34:23.586Z,8.20
2018-03-27T22:36:51.073Z,7.20
2018-03-27T22:39:18.565Z,9.20
2018-03-27T22:41:46.002Z,7.83
2018-03-27T22:44:13.770Z,7.00
2018-03-27T22:46:41.183Z,7.60
2018-03-27T22:49:08.617Z,7.13
2018-03-27T22:51:36.086Z,8.10
2018-03-27T22:54:03.581Z,8.93
2018-03-27T22:56:31.034Z,8.47
2018-03-27T22:58:58.802Z,8.83
2018-03-27T23:01:26.334Z,8.27
2018-03-27T23:03:53.809Z,7.70
2018-03-27T23:06:21.323Z,8.87
2018-03-27T23:08:48.757Z,8.33
2018-03-27T23:11:16.257Z,8.00
2018-03-27T23:13:43.874Z,8.70
2018-03-27T23:16:11.313Z,8.83
2018-03-27T23:18:38.761Z,8.80
2018-03-27T23:21:06.221Z,8.00
2018-03-27T23:23:33.654Z,8.20
2018-03-27T23:26:01.089Z,6.77
2018-03-27T23:28:28.707Z,8.60
2018-03-27T23:30:56.153Z,8.50
2018-03-27T23:33:23.609Z,8.20
2018-03-27T23:35:51.085Z,8.43
2018-03-27T23:38:18.539Z,7.80
2018-03-27T23:40:46.265Z,9.63
2018-03-27T23:43:13.778Z,9.10
2018-03-27T23:45:41.326Z,9.87
2018-03-27T23:48:08.795Z,9.53
2018-03-27T23:50:36.238Z,8.57
2018-03-27T23:53:03.901Z,8.93
2018-03-27T23:55:31.337Z,8.07
2018-03-27T23:57:58.781Z,9.80
